Time;durP1;ratioP1;P1;durP2;ratioP2;P2;SDS_P1;SDS_P2;PMS_P1;PMS_P2;Temp;Humidity;BMP_temperature;BMP_pressure;BME280_temperature;BME280_humidity;BME280_pressure;Samples;Min_cycle;Max_cycle;Signal;HPM_P1;HPM_P2
2022/05/24 00:00:27;;;;;;;3.27;2.97;;;21.30;79.00;;;-142.21;100.00;112049.66;5078506;28;20629;-72
2022/05/24 00:02:55;;;;;;;3.57;3.27;;;21.30;79.10;;;-142.21;100.00;112049.66;5079340;28;20267;-72
2022/05/24 00:05:24;;;;;;;2.87;2.67;;;21.30;79.10;;;-142.21;100.00;112049.66;5065555;28;20594;-72
2022/05/24 00:07:53;;;;;;;3.10;2.90;;;21.30;79.20;;;-142.21;100.00;112049.66;5072415;28;20292;-71
2022/05/24 00:10:26;;;;;;;3.10;2.80;;;21.20;79.20;;;-142.21;100.00;112049.66;5072761;28;20748;-71
2022/05/24 00:12:54;;;;;;;3.30;2.67;;;21.20;79.30;;;-142.21;100.00;112049.66;5080729;28;20201;-71
2022/05/24 00:15:27;;;;;;;3.17;2.60;;;21.20;79.10;;;-142.21;100.00;112049.66;5080377;28;20666;-73
2022/05/24 00:17:59;;;;;;;4.50;2.70;;;21.00;79.10;;;-142.21;100.00;112049.66;5072918;28;20232;-72
2022/05/24 00:20:31;;;;;;;3.33;2.70;;;21.00;79.70;;;-142.21;100.00;112049.66;5072266;28;20196;-72
2022/05/24 00:22:59;;;;;;;2.90;2.70;;;21.00;80.50;;;-142.21;100.00;112049.66;5083470;28;20208;-72
2022/05/24 00:25:36;;;;;;;2.93;2.50;;;21.00;79.70;;;-142.21;100.00;112049.66;5074400;28;20243;-72
2022/05/24 00:28:05;;;;;;;2.80;2.60;;;21.00;79.80;;;-142.21;100.00;112049.66;5076930;28;20188;-72
2022/05/24 00:30:33;;;;;;;3.30;3.00;;;21.00;79.50;;;-142.21;100.00;112049.66;5087325;28;21119;-73
2022/05/24 00:33:00;;;;;;;2.83;2.60;;;20.90;79.10;;;-142.21;100.00;112049.66;5076965;28;20296;-71
2022/05/24 00:35:27;;;;;;;3.00;2.63;;;20.90;80.10;;;-142.21;100.00;112049.66;5078489;28;20229;-71
2022/05/24 00:37:56;;;;;;;3.53;3.03;;;20.90;79.10;;;-142.21;100.00;112049.66;5083194;28;20608;-71
2022/05/24 00:40:53;;;;;;;2.77;2.47;;;20.90;79.00;;;-142.21;100.00;112049.66;5085867;28;20213;-71
2022/05/24 00:43:30;;;;;;;2.57;2.37;;;20.90;79.30;;;-142.21;100.00;112049.66;5077956;28;20561;-72
2022/05/24 00:46:04;;;;;;;3.87;2.43;;;20.80;78.90;;;-142.21;100.00;112049.66;5076910;28;20576;-72
2022/05/24 00:48:37;;;;;;;4.43;2.90;;;20.80;78.90;;;-142.21;100.00;112049.66;5075303;28;20200;-72
2022/05/24 00:51:09;;;;;;;3.10;2.90;;;20.80;78.60;;;-142.21;100.00;112049.66;5080809;28;20220;-72
2022/05/24 00:53:42;;;;;;;3.10;2.90;;;20.80;78.90;;;-142.21;100.00;112049.66;5083643;28;20200;-72
2022/05/24 00:56:17;;;;;;;3.63;3.30;;;20.80;78.80;;;-142.21;100.00;112049.66;5076512;28;20189;-72
2022/05/24 00:58:52;;;;;;;3.80;3.40;;;20.80;78.90;;;-142.21;100.00;112049.66;5080506;28;20193;-72
2022/05/24 01:01:33;;;;;;;4.13;3.73;;;20.70;79.10;;;-142.21;100.00;112049.66;5077603;28;20193;-72
2022/05/24 01:04:00;;;;;;;3.30;3.00;;;20.80;79.10;;;-142.21;100.00;112049.66;5080863;28;20402;-72
2022/05/24 01:06:28;;;;;;;3.80;3.50;;;20.70;78.80;;;-142.21;100.00;112049.66;5094047;28;20212;-72
2022/05/24 01:08:59;;;;;;;3.47;3.17;;;20.70;78.80;;;-142.21;100.00;112049.66;5090988;28;20287;-72
2022/05/24 01:11:30;;;;;;;3.00;2.80;;;20.70;78.90;;;-142.21;100.00;112049.66;5077315;28;20236;-72
2022/05/24 01:14:00;;;;;;;3.30;2.87;;;20.70;79.00;;;-142.21;100.00;112049.66;5083897;28;20195;-71
2022/05/24 01:16:27;;;;;;;3.50;3.20;;;20.70;78.80;;;-142.21;100.00;112049.66;5086298;28;20531;-71
2022/05/24 01:18:54;;;;;;;3.50;3.20;;;20.70;78.80;;;-142.21;100.00;112049.66;5078619;28;20637;-72
2022/05/24 01:21:22;;;;;;;3.63;3.13;;;20.80;78.60;;;-142.21;100.00;112049.66;5083247;28;20201;-71
2022/05/24 01:24:09;;;;;;;3.80;3.50;;;20.80;78.30;;;-142.21;100.00;112049.66;5083906;28;20661;-73
2022/05/24 01:26:47;;;;;;;4.00;3.50;;;20.80;78.80;;;-142.21;100.00;112049.66;5077499;28;20213;-72
2022/05/24 01:29:14;;;;;;;4.63;3.23;;;20.70;78.50;;;-142.21;100.00;112049.66;5074880;28;20197;-72
2022/05/24 01:37:13;;;;;;;3.20;2.90;;;20.70;78.50;;;-142.21;100.00;112049.66;5076980;28;20286;-72
2022/05/24 01:39:44;;;;;;;3.60;3.30;;;20.60;78.50;;;-142.21;100.00;112049.66;5075846;28;20275;-72
2022/05/24 01:42:16;;;;;;;4.00;3.23;;;20.70;78.20;;;-142.21;100.00;112049.66;5077148;28;20534;-72
2022/05/24 01:44:52;;;;;;;3.23;2.87;;;20.70;78.20;;;-142.21;100.00;112049.66;5089556;28;20192;-71
2022/05/24 01:47:22;;;;;;;3.57;3.27;;;20.70;78.20;;;-142.21;100.00;112049.66;5087486;28;20215;-72
2022/05/24 01:49:56;;;;;;;5.47;3.50;;;20.70;77.80;;;-142.21;100.00;112049.66;5089502;28;20205;-72
2022/05/24 01:52:32;;;;;;;3.50;3.20;;;20.70;78.00;;;-142.21;100.00;112049.66;5086735;28;20637;-72
2022/05/24 01:55:06;;;;;;;3.73;3.43;;;20.70;77.90;;;-142.21;100.00;112049.66;5064250;28;20204;-72
2022/05/24 01:57:42;;;;;;;4.40;3.27;;;20.70;77.90;;;-142.21;100.00;112049.66;5087780;28;20281;-72
2022/05/24 02:00:14;;;;;;;3.40;3.10;;;20.70;78.00;;;-142.21;100.00;112049.66;5066033;28;20287;-72
2022/05/24 02:02:42;;;;;;;3.97;3.57;;;20.70;78.00;;;-142.21;100.00;112049.66;5080385;28;20544;-72
2022/05/24 02:05:11;;;;;;;4.40;3.07;;;20.80;77.80;;;-142.21;100.00;112049.66;5078648;28;20229;-72
2022/05/24 02:07:39;;;;;;;3.70;3.33;;;20.80;77.70;;;-142.21;100.00;112049.66;5076871;28;20220;-72
2022/05/24 02:10:08;;;;;;;3.77;3.30;;;20.80;77.60;;;-142.21;100.00;112049.66;5082980;28;20296;-72
2022/05/24 02:12:45;;;;;;;3.37;3.07;;;20.80;77.30;;;-142.21;100.00;112049.66;5083910;28;20216;-73
2022/05/24 02:15:17;;;;;;;4.00;3.60;;;20.80;77.20;;;-142.21;100.00;112049.66;5064237;28;20223;-72
2022/05/24 02:17:55;;;;;;;4.30;3.33;;;20.80;77.20;;;-142.21;100.00;112049.66;5089348;28;20186;-72
2022/05/24 02:20:29;;;;;;;5.30;3.77;;;20.80;77.20;;;-142.21;100.00;112049.66;5076184;28;20189;-72
2022/05/24 02:22:56;;;;;;;4.53;3.73;;;20.70;77.10;;;-142.21;100.00;112049.66;5086667;28;20645;-72
2022/05/24 02:25:35;;;;;;;3.30;3.00;;;20.70;77.10;;;-142.21;100.00;112049.66;5071798;28;20530;-72
2022/05/24 02:28:08;;;;;;;3.60;3.30;;;20.70;77.10;;;-142.21;100.00;112049.66;5075266;28;20212;-73
2022/05/24 02:30:39;;;;;;;3.90;2.80;;;20.70;77.10;;;-142.21;100.00;112049.66;5070952;28;20623;-72
2022/05/24 02:33:07;;;;;;;4.57;3.80;;;20.70;76.60;;;-142.21;100.00;112049.66;5083278;28;20204;-72
2022/05/24 02:35:34;;;;;;;4.20;3.63;;;20.70;76.90;;;-142.21;100.00;112049.66;5083638;28;20236;-72
2022/05/24 02:38:01;;;;;;;4.10;3.70;;;20.40;76.70;;;-142.21;100.00;112049.66;5087787;28;20212;-72
2022/05/24 02:43:15;;;;;;;4.47;3.37;;;20.10;77.80;;;-142.21;100.00;112049.66;5077765;28;20199;-72
2022/05/24 02:45:42;;;;;;;4.13;3.77;;;20.10;78.00;;;-142.21;100.00;112049.66;5084519;28;20197;-72
2022/05/24 02:48:10;;;;;;;3.97;3.67;;;20.10;77.90;;;-142.21;100.00;112049.66;5091873;28;20557;-72
2022/05/24 02:50:38;;;;;;;3.70;3.40;;;20.10;77.80;;;-142.21;100.00;112049.66;5088114;28;20609;-72
2022/05/24 02:53:05;;;;;;;3.60;3.30;;;20.20;77.70;;;-142.21;100.00;112049.66;5077250;28;20296;-72
2022/05/24 02:55:33;;;;;;;3.70;3.40;;;20.20;77.60;;;-142.21;100.00;112049.66;5078334;28;20193;-72
2022/05/24 02:58:00;;;;;;;4.10;3.70;;;20.30;77.50;;;-142.21;100.00;112049.66;5088593;28;20193;-72
2022/05/24 03:00:29;;;;;;;4.17;3.57;;;20.30;78.30;;;-142.21;100.00;112049.66;5081891;28;20557;-72
2022/05/24 03:02:57;;;;;;;3.50;3.17;;;20.30;77.60;;;-142.21;100.00;112049.66;5091870;28;20203;-72
2022/05/24 03:05:25;;;;;;;4.00;3.70;;;20.30;77.50;;;-142.21;100.00;112049.66;5079592;28;20232;-72
2022/05/24 03:10:52;;;;;;;4.63;3.47;;;20.40;77.20;;;-142.21;100.00;112049.66;5040556;28;20996;-72
2022/05/24 03:16:11;;;;;;;8.60;3.20;;;20.30;77.30;;;-142.21;100.00;112049.66;5043398;28;20336;-72
2022/05/24 03:18:39;;;;;;;4.03;3.67;;;20.30;77.80;;;-142.21;100.00;112049.66;5072090;28;20192;-72
2022/05/24 03:21:07;;;;;;;3.30;3.00;;;20.20;77.30;;;-142.21;100.00;112049.66;5075962;28;20455;-72
2022/05/24 03:23:35;;;;;;;3.73;3.43;;;20.20;77.60;;;-142.21;100.00;112049.66;5080585;28;20289;-72
2022/05/24 03:26:03;;;;;;;6.03;3.20;;;20.20;77.80;;;-142.21;100.00;112049.66;5081626;28;20200;-72
2022/05/24 03:28:30;;;;;;;3.47;3.10;;;20.30;77.80;;;-142.21;100.00;112049.66;5078173;28;20222;-72
2022/05/24 03:30:57;;;;;;;3.33;3.03;;;20.30;77.50;;;-142.21;100.00;112049.66;5089466;28;20645;-72
2022/05/24 03:33:26;;;;;;;3.63;3.30;;;20.30;77.30;;;-142.21;100.00;112049.66;5074601;28;20870;-72
2022/05/24 03:35:53;;;;;;;3.33;3.03;;;20.30;77.40;;;-142.21;100.00;112049.66;5077455;28;20193;-72
2022/05/24 03:38:20;;;;;;;4.17;3.27;;;20.30;77.40;;;-142.21;100.00;112049.66;5087433;28;20202;-72
2022/05/24 03:40:47;;;;;;;4.13;3.53;;;20.20;77.30;;;-142.21;100.00;112049.66;5073763;28;20445;-72
2022/05/24 03:43:16;;;;;;;5.63;3.27;;;20.20;77.50;;;-142.21;100.00;112049.66;5079478;28;20242;-72
2022/05/24 03:45:43;;;;;;;3.87;3.57;;;20.10;77.80;;;-142.21;100.00;112049.66;5086595;28;20340;-72
2022/05/24 03:48:11;;;;;;;3.90;3.60;;;19.90;78.20;;;-142.21;100.00;112049.66;5078789;28;20225;-72
2022/05/24 03:50:39;;;;;;;7.27;4.00;;;19.80;78.40;;;-142.21;100.00;112049.66;5077288;28;20291;-71
2022/05/24 03:53:06;;;;;;;4.40;3.40;;;19.90;78.50;;;-142.21;100.00;112049.66;5077035;28;20208;-73
2022/05/24 03:55:34;;;;;;;3.67;3.37;;;19.90;78.20;;;-142.21;100.00;112049.66;5090662;28;20212;-72
2022/05/24 03:58:00;;;;;;;3.60;3.30;;;20.00;78.00;;;-142.21;100.00;112049.66;5086782;28;20199;-72
2022/05/24 04:00:32;;;;;;;4.27;3.87;;;19.80;78.50;;;-142.21;100.00;112049.66;5064120;28;20260;-72
2022/05/24 04:03:00;;;;;;;4.03;3.63;;;19.70;78.80;;;-142.21;100.00;112049.66;5087057;28;20207;-72
2022/05/24 04:05:28;;;;;;;7.40;4.03;;;19.60;79.30;;;-142.21;100.00;112049.66;5054490;28;20264;-73
2022/05/24 04:07:57;;;;;;;3.93;3.53;;;19.50;79.80;;;-142.21;100.00;112049.66;5082498;28;20483;-72
2022/05/24 04:10:25;;;;;;;3.57;3.27;;;19.60;79.80;;;-142.21;100.00;112049.66;5093452;28;20207;-72
2022/05/24 04:12:52;;;;;;;3.40;3.10;;;19.70;79.60;;;-142.21;100.00;112049.66;5086234;28;20935;-73
2022/05/24 04:15:19;;;;;;;3.97;3.57;;;19.70;79.40;;;-142.21;100.00;112049.66;5091564;28;20539;-72
2022/05/24 04:17:48;;;;;;;6.87;3.77;;;19.80;79.10;;;-142.21;100.00;112049.66;5076670;28;20584;-72
2022/05/24 04:20:16;;;;;;;3.43;3.13;;;19.80;79.10;;;-142.21;100.00;112049.66;5078849;28;20440;-72
2022/05/24 04:22:44;;;;;;;3.90;3.50;;;19.90;79.00;;;-142.21;100.00;112049.66;5084504;28;20280;-72
2022/05/24 04:25:15;;;;;;;4.60;3.13;;;19.90;79.10;;;-142.21;100.00;112049.66;5090280;28;20196;-71
2022/05/24 04:27:43;;;;;;;3.70;3.40;;;19.90;79.50;;;-142.21;100.00;112049.66;5090514;28;20204;-72
2022/05/24 04:30:13;;;;;;;3.10;2.80;;;19.90;79.30;;;-142.21;100.00;112049.66;5075138;28;20307;-72
2022/05/24 04:32:40;;;;;;;7.30;3.03;;;19.90;79.40;;;-142.21;100.00;112049.66;5080381;28;20192;-71
2022/05/24 04:35:08;;;;;;;2.90;2.70;;;19.90;79.50;;;-142.21;100.00;112049.66;5085216;28;20538;-72
2022/05/24 04:37:35;;;;;;;6.33;2.97;;;19.90;79.80;;;-142.21;100.00;112049.66;5090646;28;20633;-72
2022/05/24 04:40:03;;;;;;;2.73;2.53;;;19.90;80.10;;;-142.21;100.00;112049.66;5076116;28;20443;-72
2022/05/24 04:42:31;;;;;;;3.50;3.20;;;19.90;80.30;;;-142.21;100.00;112049.66;5082554;28;20192;-72
2022/05/24 04:45:01;;;;;;;3.27;2.97;;;19.80;80.40;;;-142.21;100.00;112049.66;5087450;28;20232;-72
2022/05/24 04:47:31;;;;;;;3.70;2.73;;;19.80;80.50;;;-142.21;100.00;112049.66;5078362;28;20478;-71
2022/05/24 04:50:01;;;;;;;3.47;2.83;;;19.80;80.60;;;-142.21;100.00;112049.66;5092185;28;20222;-71
2022/05/24 04:52:31;;;;;;;3.73;2.80;;;19.90;80.20;;;-142.21;100.00;112049.66;5086547;28;20939;-72
2022/05/24 04:54:58;;;;;;;4.53;2.77;;;20.00;79.40;;;-142.21;100.00;112049.66;5093390;28;20192;-71
2022/05/24 04:57:26;;;;;;;2.50;2.27;;;20.10;79.00;;;-142.21;100.00;112049.66;5092328;28;20201;-72
2022/05/24 04:59:55;;;;;;;3.20;2.00;;;20.20;78.60;;;-142.21;100.00;112049.66;5078888;28;20559;-71
2022/05/24 05:02:22;;;;;;;2.53;2.33;;;20.20;78.40;;;-142.21;100.00;112049.66;5076825;28;20447;-73
2022/05/24 05:04:50;;;;;;;2.83;2.43;;;20.20;78.30;;;-142.21;100.00;112049.66;5081586;28;20787;-72
2022/05/24 05:07:20;;;;;;;2.77;2.57;;;20.20;78.50;;;-142.21;100.00;112049.66;5089950;28;20410;-72
2022/05/24 05:09:50;;;;;;;2.43;2.23;;;20.30;79.10;;;-142.21;100.00;112049.66;5085342;28;20184;-72
2022/05/24 05:12:18;;;;;;;2.53;2.33;;;20.30;79.20;;;-142.21;100.00;112049.66;5088087;28;20201;-72
2022/05/24 05:14:45;;;;;;;2.20;2.10;;;20.30;79.00;;;-142.21;100.00;112049.66;5081565;28;20556;-72
2022/05/24 05:17:16;;;;;;;3.93;1.87;;;20.40;78.40;;;-142.21;100.00;112049.66;5074817;28;20235;-72
2022/05/24 05:19:44;;;;;;;2.03;1.70;;;20.50;77.30;;;-142.21;100.00;112049.66;5075492;28;20198;-72
2022/05/24 05:22:11;;;;;;;1.60;1.50;;;20.50;77.20;;;-142.21;100.00;112049.66;5077045;28;20725;-72
2022/05/24 05:24:39;;;;;;;1.93;1.43;;;20.60;76.90;;;-142.21;100.00;112049.66;5074685;28;20292;-72
2022/05/24 05:27:06;;;;;;;1.73;1.63;;;20.70;76.90;;;-142.21;100.00;112049.66;5086261;28;20197;-72
2022/05/24 05:32:22;;;;;;;1.43;1.23;;;20.70;75.80;;;-142.21;100.00;112049.66;5087143;28;20427;-72
2022/05/24 05:34:50;;;;;;;1.90;1.40;;;20.70;74.70;;;-142.21;100.00;112049.66;5092865;28;20212;-71
2022/05/24 05:37:18;;;;;;;1.50;1.40;;;20.80;74.30;;;-142.21;100.00;112049.66;5085920;28;20197;-71
2022/05/24 05:39:45;;;;;;;1.50;1.40;;;20.70;74.00;;;-142.21;100.00;112049.66;5084722;28;20201;-72
2022/05/24 05:42:13;;;;;;;2.07;1.53;;;20.70;73.80;;;-142.21;100.00;112049.66;5082793;28;20203;-71
2022/05/24 05:44:40;;;;;;;1.40;1.30;;;20.70;73.60;;;-142.21;100.00;112049.66;5076171;28;20280;-72
2022/05/24 05:47:08;;;;;;;1.83;1.47;;;20.60;73.50;;;-142.21;100.00;112049.66;5083356;28;20563;-75
2022/05/24 05:49:36;;;;;;;1.57;1.47;;;20.60;73.50;;;-142.21;100.00;112049.66;5079036;28;20201;-74
2022/05/24 05:52:04;;;;;;;2.87;1.57;;;20.50;73.80;;;-142.21;100.00;112049.66;5074272;28;20193;-75
2022/05/24 05:54:33;;;;;;;1.47;1.37;;;20.60;74.20;;;-142.21;100.00;112049.66;5079164;28;20443;-75
2022/05/24 05:57:00;;;;;;;1.60;1.40;;;20.60;74.50;;;-142.21;100.00;112049.66;5080242;28;20211;-74
2022/05/24 05:59:28;;;;;;;1.73;1.63;;;20.50;74.80;;;-142.21;100.00;112049.66;5073236;28;20295;-74
2022/05/24 06:01:58;;;;;;;2.37;2.17;;;20.40;75.80;;;-142.21;100.00;112049.66;5072500;28;20296;-75
2022/05/24 06:04:25;;;;;;;2.73;2.00;;;20.20;76.90;;;-142.21;100.00;112049.66;5071626;28;20291;-75
2022/05/24 06:06:54;;;;;;;2.10;1.90;;;19.90;77.90;;;-142.21;100.00;112049.66;5073665;28;20538;-73
2022/05/24 06:09:21;;;;;;;1.93;1.33;;;19.60;78.90;;;-142.21;100.00;112049.66;5073035;28;20587;-73
2022/05/24 06:11:48;;;;;;;1.70;1.10;;;19.50;76.60;;;-142.21;100.00;112049.66;5072610;28;20274;-74
2022/05/24 06:14:16;;;;;;;1.43;1.10;;;19.30;74.50;;;-142.21;100.00;112049.66;5072998;28;20244;-76
2022/05/24 06:16:43;;;;;;;3.33;1.43;;;19.20;75.40;;;-142.21;100.00;112049.66;5073245;28;20250;-75
2022/05/24 06:19:10;;;;;;;1.00;1.00;;;19.10;76.00;;;-142.21;100.00;112049.66;5073011;28;20291;-75
2022/05/24 06:21:37;;;;;;;2.93;1.57;;;19.10;75.70;;;-142.21;100.00;112049.66;5071995;28;20556;-75
2022/05/24 06:24:08;;;;;;;0.90;0.90;;;19.10;76.70;;;-142.21;100.00;112049.66;5072512;28;20284;-76
2022/05/24 06:26:36;;;;;;;1.40;1.30;;;19.30;76.70;;;-142.21;100.00;112049.66;5073107;28;20467;-75
2022/05/24 06:29:06;;;;;;;2.20;1.20;;;19.30;76.60;;;-142.21;100.00;112049.66;5072482;28;20312;-77
2022/05/24 06:31:33;;;;;;;1.90;1.40;;;19.30;77.00;;;-142.21;100.00;112049.66;5072244;28;20279;-75
2022/05/24 06:34:01;;;;;;;1.40;1.30;;;19.40;76.80;;;-142.21;100.00;112049.66;5072522;28;20477;-76
2022/05/24 06:36:28;;;;;;;1.20;1.10;;;19.40;76.90;;;-142.21;100.00;112049.66;5072193;28;20296;-75
2022/05/24 06:38:55;;;;;;;1.23;1.13;;;19.30;77.20;;;-142.21;100.00;112049.66;5071714;28;20201;-75
2022/05/24 06:41:23;;;;;;;2.50;1.40;;;19.30;76.50;;;-142.21;100.00;112049.66;5072291;28;20687;-75
2022/05/24 06:43:50;;;;;;;1.17;1.07;;;19.30;77.30;;;-142.21;100.00;112049.66;5072389;28;20204;-75
2022/05/24 06:46:18;;;;;;;0.77;0.77;;;19.30;76.30;;;-142.21;100.00;112049.66;5072200;28;20565;-76
2022/05/24 06:48:45;;;;;;;1.03;0.80;;;19.30;76.30;;;-142.21;100.00;112049.66;5071553;28;20643;-75
2022/05/24 06:51:16;;;;;;;0.70;0.70;;;19.30;75.70;;;-142.21;100.00;112049.66;5072193;28;20539;-75
2022/05/24 06:53:49;;;;;;;1.43;0.80;;;19.20;75.60;;;-142.21;100.00;112049.66;5071963;28;20291;-73
2022/05/24 06:56:19;;;;;;;1.43;1.33;;;19.10;75.10;;;-142.21;100.00;112049.66;5072376;28;20205;-75
2022/05/24 06:58:49;;;;;;;0.80;0.80;;;19.10;75.90;;;-142.21;100.00;112049.66;5076246;28;20201;-74
2022/05/24 07:04:03;;;;;;;1.80;1.10;;;18.90;75.00;;;-142.21;100.00;112049.66;5039289;28;20440;-75
2022/05/24 07:06:30;;;;;;;2.43;0.93;;;18.80;75.90;;;-142.21;100.00;112049.66;5076526;28;20427;-76
2022/05/24 07:08:57;;;;;;;2.00;1.00;;;18.80;76.60;;;-142.21;100.00;112049.66;5073692;28;20994;-76
2022/05/24 07:11:25;;;;;;;1.23;0.80;;;18.80;76.70;;;-142.21;100.00;112049.66;5070898;28;20240;-75
2022/05/24 07:13:54;;;;;;;0.70;0.70;;;18.90;76.70;;;-142.21;100.00;112049.66;5035792;28;20432;-75
2022/05/24 07:16:21;;;;;;;0.87;0.60;;;19.00;77.10;;;-142.21;100.00;112049.66;5072117;28;20812;-75
2022/05/24 07:18:48;;;;;;;1.13;1.03;;;19.10;76.40;;;-142.21;100.00;112049.66;5071257;28;20443;-75
2022/05/24 07:21:16;;;;;;;0.70;0.70;;;19.10;76.50;;;-142.21;100.00;112049.66;5072032;28;20232;-75
2022/05/24 07:23:43;;;;;;;1.43;1.30;;;19.00;75.60;;;-142.21;100.00;112049.66;5071414;28;20236;-75
2022/05/24 07:26:15;;;;;;;3.80;1.37;;;19.00;76.50;;;-142.21;100.00;112049.66;5071437;28;20292;-75
2022/05/24 07:28:42;;;;;;;1.60;0.80;;;18.90;76.30;;;-142.21;100.00;112049.66;5071144;28;20673;-74
2022/05/24 07:31:11;;;;;;;2.93;1.13;;;18.90;76.20;;;-142.21;100.00;112049.66;5071901;28;20320;-75
2022/05/24 07:33:38;;;;;;;1.23;1.00;;;19.00;76.20;;;-142.21;100.00;112049.66;5070696;28;20461;-75
2022/05/24 07:36:08;;;;;;;0.63;0.63;;;19.00;75.40;;;-142.21;100.00;112049.66;5071206;28;20447;-74
2022/05/24 07:38:37;;;;;;;0.90;0.90;;;18.90;75.10;;;-142.21;100.00;112049.66;5070036;28;20444;-75
2022/05/24 07:46:35;;;;;;;1.73;1.20;;;18.80;76.20;;;-142.21;100.00;112049.66;5071671;28;20407;-74
2022/05/24 07:49:04;;;;;;;0.70;0.70;;;18.90;76.70;;;-142.21;100.00;112049.66;5071224;28;21025;-75
2022/05/24 07:51:32;;;;;;;0.60;0.60;;;19.00;75.20;;;-142.21;100.00;112049.66;5071673;28;20447;-74
2022/05/24 07:53:59;;;;;;;0.57;0.50;;;19.00;73.00;;;-142.21;100.00;112049.66;5071056;28;20205;-74
2022/05/24 07:56:26;;;;;;;1.07;0.97;;;18.90;71.10;;;-142.21;100.00;112049.66;5071477;28;20432;-74
2022/05/24 07:58:54;;;;;;;0.83;0.83;;;19.00;71.50;;;-142.21;100.00;112049.66;5070663;28;20197;-75
2022/05/24 08:01:23;;;;;;;2.07;1.30;;;19.00;69.80;;;-142.21;100.00;112049.66;5071342;28;20212;-75
2022/05/24 08:03:52;;;;;;;0.80;0.80;;;19.10;71.60;;;-142.21;100.00;112049.66;5070510;28;20508;-75
2022/05/24 08:06:20;;;;;;;0.73;0.73;;;19.20;70.40;;;-142.21;100.00;112049.66;5071177;28;20510;-74
2022/05/24 08:08:47;;;;;;;1.67;1.10;;;19.10;70.70;;;-142.21;100.00;112049.66;5070486;28;20258;-75
2022/05/24 08:11:14;;;;;;;1.53;1.10;;;19.20;71.50;;;-142.21;100.00;112049.66;5071229;28;20448;-74
2022/05/24 08:13:41;;;;;;;1.90;1.03;;;19.20;70.20;;;-142.21;100.00;112049.66;5070571;28;20522;-74
2022/05/24 08:16:08;;;;;;;0.80;0.80;;;19.20;70.30;;;-142.21;100.00;112049.66;5071243;28;20206;-74
2022/05/24 08:18:36;;;;;;;1.10;1.00;;;19.40;70.50;;;-142.21;97.87;112049.66;5071094;28;20259;-74
2022/05/24 08:21:05;;;;;;;1.33;0.90;;;19.60;68.50;;;-142.21;99.84;112049.66;5070715;28;20236;-75
2022/05/24 08:23:33;;;;;;;0.83;0.70;;;19.60;68.60;;;-142.21;97.80;112049.66;5071278;28;20564;-74
2022/05/24 08:26:00;;;;;;;1.07;0.50;;;19.60;67.80;;;-142.21;98.95;112049.66;5070780;28;20209;-74
2022/05/24 08:28:28;;;;;;;0.70;0.70;;;19.50;68.30;;;-142.21;96.80;112049.66;5071278;28;20261;-75
2022/05/24 08:30:55;;;;;;;0.80;0.80;;;19.60;67.10;;;-142.21;96.16;112049.66;5070590;28;20546;-74
2022/05/24 08:33:24;;;;;;;1.03;0.87;;;19.70;67.00;;;-142.21;96.43;112049.66;5070785;28;20205;-74
2022/05/24 08:35:53;;;;;;;1.40;1.00;;;19.60;67.00;;;-142.21;96.22;112049.66;5070436;28;20205;-75
2022/05/24 08:38:23;;;;;;;1.93;1.03;;;19.60;67.10;;;-142.21;94.00;112049.66;5071172;28;20474;-74
2022/05/24 08:40:52;;;;;;;1.57;1.10;;;19.60;65.70;;;-142.21;92.16;112049.66;5070452;28;20256;-74
2022/05/24 08:43:54;;;;;;;1.70;0.90;;;19.60;64.70;;;-142.21;91.76;112049.66;5070973;28;20744;-75
2022/05/24 08:49:28;;;;;;;1.80;0.90;;;19.70;64.50;;;-142.21;92.53;112049.66;5060712;28;20475;-75
2022/05/24 08:52:01;;;;;;;0.93;0.90;;;19.90;64.70;;;-142.21;88.75;112049.66;5072883;28;20239;-74
2022/05/24 08:54:40;;;;;;;1.33;1.17;;;19.80;61.90;;;-142.21;90.28;112049.66;5074678;28;20281;-76
2022/05/24 08:57:14;;;;;;;1.10;1.00;;;19.80;62.80;;;-142.21;89.94;112049.66;5074705;28;20502;-75
2022/05/24 08:59:49;;;;;;;0.80;0.70;;;20.00;62.90;;;-142.21;89.46;112049.66;5073725;28;20196;-74
2022/05/24 09:02:16;;;;;;;2.13;0.93;;;20.10;62.20;;;-142.21;89.63;112049.66;5074470;28;20185;-74
2022/05/24 09:04:44;;;;;;;0.83;0.83;;;20.10;62.40;;;-142.21;87.79;112049.66;5073410;28;20232;-75
2022/05/24 09:07:27;;;;;;;1.00;0.77;;;20.30;62.10;;;-142.21;85.01;112049.66;5074111;28;20307;-74
2022/05/24 09:10:06;;;;;;;0.60;0.60;;;20.30;60.00;;;-142.21;83.17;112049.66;5073996;28;20227;-75
2022/05/24 09:13:01;;;;;;;1.20;0.80;;;20.40;59.60;;;-142.21;82.13;112049.66;5074120;28;20280;-75
2022/05/24 09:15:43;;;;;;;0.70;0.70;;;20.40;58.90;;;-142.21;82.75;112049.66;5074216;28;20192;-74
2022/05/24 09:18:23;;;;;;;2.27;0.70;;;20.30;59.10;;;-142.21;82.73;112049.66;5074286;28;20609;-74
2022/05/24 09:20:51;;;;;;;1.93;0.83;;;20.40;59.60;;;-142.21;79.25;112049.66;5073073;28;20213;-73
2022/05/24 09:23:25;;;;;;;1.00;0.90;;;20.40;58.20;;;-142.21;82.79;112049.66;5072629;28;20216;-75
2022/05/24 09:26:17;;;;;;;1.37;0.77;;;20.50;59.50;;;-142.21;82.08;112049.66;5073548;28;20192;-75
2022/05/24 09:28:49;;;;;;;0.60;0.60;;;20.70;58.70;;;-142.21;79.79;112049.66;5073298;28;20213;-74
2022/05/24 09:31:30;;;;;;;0.43;0.43;;;20.80;58.80;;;-142.21;74.99;112049.66;5073940;28;20229;-74
2022/05/24 09:34:03;;;;;;;0.67;0.67;;;21.00;56.90;;;-142.21;74.22;112049.66;5055709;28;20632;-74
2022/05/24 09:36:37;;;;;;;0.73;0.60;;;21.10;56.40;;;-142.21;77.04;112049.66;5073612;28;20747;-72
2022/05/24 09:39:22;;;;;;;2.47;1.27;;;21.20;57.10;;;-142.21;74.31;112049.66;5073311;28;20190;-75
2022/05/24 09:41:58;;;;;;;0.73;0.60;;;21.20;56.30;;;-142.21;76.04;112049.66;5074485;28;20275;-74
2022/05/24 09:44:28;;;;;;;2.27;0.90;;;21.20;56.80;;;-142.21;74.77;112049.66;5073323;28;20196;-74
2022/05/24 09:46:56;;;;;;;1.93;0.80;;;21.10;56.20;;;-142.21;75.85;112049.66;5072702;28;20209;-74
2022/05/24 09:49:28;;;;;;;1.00;0.80;;;21.20;57.10;;;-142.21;76.07;112049.66;5073641;28;20247;-74
2022/05/24 09:52:11;;;;;;;1.30;1.10;;;21.30;56.70;;;-142.21;77.82;112049.66;5072703;28;20193;-75
2022/05/24 09:54:53;;;;;;;1.93;1.17;;;21.40;57.20;;;-142.21;75.73;112049.66;5073297;28;20208;-75
2022/05/24 09:57:27;;;;;;;0.93;0.63;;;21.40;56.50;;;-142.21;73.07;112049.66;5073557;28;20584;-74
2022/05/24 10:00:19;;;;;;;0.90;0.90;;;21.40;55.90;;;-142.21;71.24;112049.66;5071688;28;20661;-75
2022/05/24 10:02:48;;;;;;;2.90;1.00;;;21.60;55.30;;;-142.21;70.05;112049.66;5072762;28;20267;-74
2022/05/24 10:05:22;;;;;;;1.40;0.60;;;21.60;54.80;;;-142.21;70.58;112049.66;5072790;28;20237;-75
2022/05/24 10:07:59;;;;;;;0.83;0.83;;;21.60;55.40;;;-142.21;68.79;112049.66;5072814;28;20615;-75
2022/05/24 10:10:34;;;;;;;2.30;1.00;;;21.60;54.60;;;-142.21;70.81;112049.66;5073337;28;20678;-75
2022/05/24 10:13:16;;;;;;;1.20;0.83;;;21.70;55.50;;;-142.21;69.18;112049.66;5072546;28;20197;-74
2022/05/24 10:15:53;;;;;;;0.63;0.63;;;21.80;55.00;;;-142.21;65.74;112049.66;5073229;28;20272;-74
2022/05/24 10:18:54;;;;;;;0.90;0.90;;;21.80;53.40;;;-142.21;67.45;112049.66;5072854;28;20193;-74
2022/05/24 10:21:33;;;;;;;2.03;0.90;;;21.70;53.90;;;-142.21;67.79;112049.66;5073135;28;20280;-75
2022/05/24 10:24:33;;;;;;;0.70;0.70;;;21.70;54.10;;;-142.21;67.75;112049.66;5072562;28;20229;-75
2022/05/24 10:27:13;;;;;;;1.00;0.73;;;21.80;54.00;;;-142.21;70.14;112049.66;5071802;28;20209;-74
2022/05/24 10:29:55;;;;;;;1.00;1.00;;;21.80;55.00;;;-142.21;67.74;112049.66;5073510;28;20209;-76
2022/05/24 10:38:41;;;;;;;0.90;0.70;;;22.10;51.70;;;-142.21;59.06;112049.66;5076475;28;20282;-74
2022/05/24 10:41:15;;;;;;;0.70;0.70;;;22.00;51.60;;;-142.21;59.53;112049.66;5077411;28;20284;-74
2022/05/24 10:44:02;;;;;;;0.50;0.50;;;21.90;52.00;;;-142.21;58.90;112049.66;5072587;28;20192;-75